Time;durP1;ratioP1;P1;durP2;ratioP2;P2;SDS_P1;SDS_P2;PMS_P1;PMS_P2;Temp;Humidity;BMP_temperature;BMP_pressure;BME280_temperature;BME280_humidity;BME280_pressure;Samples;Min_cycle;Max_cycle;Signal;HPM_P1;HPM_P2
2022/01/01 00:00:49;;;;;;;117.25;70.50;;;6.80;99.90;;;;;;5016500;28;20030;-71
2022/01/01 00:03:14;;;;;;;117.28;68.40;;;6.80;99.90;;;;;;5028503;28;20033;-72
2022/01/01 00:05:40;;;;;;;121.68;67.30;;;6.80;99.90;;;;;;5016034;28;20060;-71
2022/01/01 00:08:07;;;;;;;115.85;67.57;;;6.80;99.90;;;;;;5018455;28;20025;-71
2022/01/01 00:10:33;;;;;;;115.30;68.38;;;6.80;99.90;;;;;;5019589;28;20428;-71
2022/01/01 00:12:59;;;;;;;124.47;70.88;;;6.70;99.90;;;;;;5021957;28;20017;-72
2022/01/01 00:15:25;;;;;;;129.43;75.13;;;6.70;99.90;;;;;;5026684;28;20037;-72
2022/01/01 00:17:51;;;;;;;131.90;73.18;;;6.60;99.90;;;;;;5028930;28;20087;-72
2022/01/01 00:20:17;;;;;;;117.60;66.40;;;6.60;99.90;;;;;;5019557;28;20056;-71
2022/01/01 00:22:44;;;;;;;121.18;67.68;;;6.60;99.90;;;;;;5004474;28;20034;-72
2022/01/01 00:25:11;;;;;;;116.53;66.20;;;6.50;99.90;;;;;;5018193;28;21109;-74
2022/01/01 00:27:37;;;;;;;116.30;67.80;;;6.50;99.90;;;;;;5005921;28;20026;-72
2022/01/01 00:30:06;;;;;;;111.57;69.38;;;6.40;99.90;;;;;;5013233;28;20017;-72
2022/01/01 00:32:33;;;;;;;118.47;66.60;;;6.40;99.90;;;;;;5005841;28;20026;-72
2022/01/01 00:34:59;;;;;;;120.22;68.97;;;6.40;99.90;;;;;;5001250;28;20036;-71
2022/01/01 00:37:24;;;;;;;119.43;69.22;;;6.40;99.90;;;;;;5013345;28;20552;-73
2022/01/01 00:39:50;;;;;;;117.03;65.20;;;6.40;99.90;;;;;;5009800;28;20421;-73
2022/01/01 00:42:16;;;;;;;106.80;57.88;;;6.40;99.90;;;;;;5021136;28;20495;-72
2022/01/01 00:44:41;;;;;;;102.75;59.45;;;6.40;99.90;;;;;;5014277;28;20029;-73
2022/01/01 00:47:07;;;;;;;100.30;55.50;;;6.30;99.90;;;;;;5012308;28;20068;-72
2022/01/01 00:49:33;;;;;;;92.32;52.40;;;6.40;99.90;;;;;;5006509;28;20029;-72
2022/01/01 00:51:59;;;;;;;88.78;48.95;;;6.30;99.90;;;;;;5011563;28;20497;-72
2022/01/01 00:54:25;;;;;;;83.63;46.28;;;6.30;99.90;;;;;;5014030;28;20033;-72
2022/01/01 00:56:50;;;;;;;76.45;44.40;;;6.30;99.90;;;;;;5016872;28;20034;-72
2022/01/01 00:59:16;;;;;;;72.82;42.00;;;6.30;99.90;;;;;;5006022;28;20125;-71
2022/01/01 01:01:42;;;;;;;65.80;38.35;;;6.30;99.90;;;;;;5011739;28;20034;-72
2022/01/01 01:04:08;;;;;;;66.03;36.97;;;6.30;99.90;;;;;;5005331;28;20032;-71
2022/01/01 01:06:33;;;;;;;59.03;32.17;;;6.30;99.90;;;;;;5009656;28;20469;-71
2022/01/01 01:09:00;;;;;;;51.88;29.90;;;6.30;99.90;;;;;;5007173;28;20034;-71
2022/01/01 01:11:27;;;;;;;44.78;25.05;;;6.30;99.90;;;;;;5013153;28;20045;-72
2022/01/01 01:13:58;;;;;;;37.47;23.02;;;6.30;99.90;;;;;;5005079;28;20533;-73
2022/01/01 01:16:25;;;;;;;40.47;22.33;;;6.30;99.90;;;;;;5039283;23;20132;-70
2022/01/01 01:18:53;;;;;;;45.42;24.00;;;6.30;99.90;;;;;;5011517;28;20034;-70
2022/01/01 01:21:20;;;;;;;47.60;26.77;;;6.30;99.90;;;;;;4998711;28;20029;-70
2022/01/01 01:23:48;;;;;;;54.03;29.30;;;6.30;99.90;;;;;;5010678;28;20040;-70
2022/01/01 01:26:13;;;;;;;50.63;29.60;;;6.20;99.90;;;;;;4999833;28;20029;-70
2022/01/01 01:28:46;;;;;;;51.50;29.52;;;6.20;99.90;;;;;;5013373;28;20467;-70
2022/01/01 01:31:12;;;;;;;52.47;29.88;;;6.20;99.90;;;;;;4996030;28;20041;-70
2022/01/01 01:33:37;;;;;;;54.90;31.08;;;6.20;99.90;;;;;;4998754;28;20445;-70
2022/01/01 01:36:03;;;;;;;38.63;22.73;;;6.10;99.90;;;;;;5012743;28;20113;-70
2022/01/01 01:38:29;;;;;;;47.67;26.40;;;6.10;99.90;;;;;;5012788;28;20051;-69
2022/01/01 01:40:54;;;;;;;54.13;28.30;;;6.10;99.90;;;;;;5007193;28;20026;-70
2022/01/01 01:43:21;;;;;;;46.90;25.58;;;6.10;99.90;;;;;;5016000;28;20030;-70
2022/01/01 01:45:48;;;;;;;34.55;20.75;;;6.10;99.90;;;;;;5011997;28;20033;-70
2022/01/01 01:48:14;;;;;;;28.15;14.73;;;6.10;99.90;;;;;;5013438;28;20029;-70
2022/01/01 01:50:40;;;;;;;20.25;11.48;;;6.10;99.90;;;;;;5010380;28;20030;-70
2022/01/01 01:53:07;;;;;;;19.65;11.07;;;6.10;99.90;;;;;;5013815;28;20029;-70
2022/01/01 01:55:33;;;;;;;20.90;10.52;;;6.10;99.90;;;;;;5022457;28;20037;-70
2022/01/01 01:57:59;;;;;;;19.10;9.82;;;6.10;99.90;;;;;;5014636;28;20029;-70
2022/01/01 02:02:50;;;;;;;16.98;9.70;;;6.00;99.90;;;;;;5011795;28;20359;-70
2022/01/01 02:05:16;;;;;;;20.60;9.95;;;6.00;99.90;;;;;;5010888;28;20037;-70
2022/01/01 02:07:43;;;;;;;16.35;9.68;;;6.00;99.90;;;;;;5008372;28;20079;-69
2022/01/01 02:10:09;;;;;;;15.80;9.20;;;6.00;99.90;;;;;;5009555;28;20419;-70
2022/01/01 02:12:35;;;;;;;14.35;9.15;;;6.00;99.90;;;;;;5011751;28;20022;-69
2022/01/01 02:17:29;;;;;;;13.80;7.05;;;6.00;99.90;;;;;;5015381;28;20034;-70
2022/01/01 02:20:01;;;;;;;13.90;7.55;;;6.00;99.90;;;;;;5013603;28;20146;-70
2022/01/01 02:22:36;;;;;;;12.68;6.65;;;6.10;99.90;;;;;;5003454;28;20037;-70
2022/01/01 02:25:04;;;;;;;11.60;6.60;;;6.10;99.90;;;;;;5011182;28;20029;-70
2022/01/01 02:27:30;;;;;;;13.38;6.38;;;6.10;99.90;;;;;;5014416;28;20029;-69
2022/01/01 02:29:56;;;;;;;10.95;6.18;;;6.10;99.90;;;;;;5014682;28;20085;-70
2022/01/01 02:32:21;;;;;;;11.30;6.25;;;6.00;99.90;;;;;;5014649;28;20026;-69
2022/01/01 02:34:47;;;;;;;13.25;6.43;;;6.10;99.90;;;;;;5014374;28;20033;-70
2022/01/01 02:37:13;;;;;;;11.48;7.10;;;6.00;99.90;;;;;;5014375;28;20017;-69
2022/01/01 02:39:38;;;;;;;11.13;6.00;;;6.00;99.90;;;;;;5017741;28;20057;-70
2022/01/01 02:42:08;;;;;;;14.70;7.45;;;6.00;99.90;;;;;;5014442;28;20495;-70
2022/01/01 02:44:34;;;;;;;12.43;7.05;;;6.00;99.90;;;;;;5014357;28;20033;-70
2022/01/01 02:47:00;;;;;;;11.70;6.10;;;6.00;99.90;;;;;;5020003;28;20042;-70
2022/01/01 02:49:25;;;;;;;10.30;6.00;;;5.90;99.90;;;;;;4991553;28;20062;-70
2022/01/01 02:51:51;;;;;;;30.25;12.48;;;5.90;99.90;;;;;;5010286;28;20073;-70
2022/01/01 02:54:17;;;;;;;16.60;8.43;;;5.90;99.90;;;;;;5011903;28;20076;-70
2022/01/01 02:56:49;;;;;;;11.57;6.03;;;5.90;99.90;;;;;;5013938;28;20030;-70
2022/01/01 02:59:15;;;;;;;10.32;5.45;;;5.90;99.90;;;;;;5000441;28;20026;-70
2022/01/01 03:01:41;;;;;;;10.32;5.78;;;5.90;99.90;;;;;;5013174;28;20121;-70
2022/01/01 03:04:07;;;;;;;9.30;5.35;;;5.90;99.90;;;;;;4996595;28;20105;-69
2022/01/01 03:06:32;;;;;;;7.15;4.80;;;5.90;99.90;;;;;;5014094;28;20119;-70
2022/01/01 03:08:58;;;;;;;8.07;4.18;;;5.90;99.90;;;;;;5014650;28;20088;-69
2022/01/01 03:11:24;;;;;;;6.95;3.80;;;5.90;99.90;;;;;;5012184;28;20033;-69
2022/01/01 03:13:50;;;;;;;8.65;3.95;;;6.00;99.90;;;;;;5014469;28;20168;-70
2022/01/01 03:16:15;;;;;;;6.40;3.33;;;6.00;99.90;;;;;;5018309;28;20037;-70
2022/01/01 03:18:41;;;;;;;6.63;3.17;;;6.10;99.90;;;;;;5019501;28;20088;-70
2022/01/01 03:21:08;;;;;;;4.32;2.90;;;6.10;99.90;;;;;;5002171;28;20026;-70
2022/01/01 03:23:34;;;;;;;6.50;3.30;;;6.10;99.90;;;;;;5010229;28;20030;-70
2022/01/01 03:26:00;;;;;;;4.70;2.40;;;6.10;99.90;;;;;;5013720;28;20037;-70
2022/01/01 03:28:27;;;;;;;5.32;2.70;;;6.20;99.90;;;;;;5020497;28;20108;-70
2022/01/01 03:30:53;;;;;;;5.68;2.55;;;6.20;99.90;;;;;;5006007;28;20036;-69
2022/01/01 03:33:19;;;;;;;3.75;2.15;;;6.20;99.90;;;;;;5005912;28;20068;-70
2022/01/01 03:35:47;;;;;;;4.25;2.28;;;6.20;99.90;;;;;;5015401;28;20429;-70
2022/01/01 03:38:13;;;;;;;4.45;2.45;;;6.20;99.90;;;;;;5010237;28;20164;-69
2022/01/01 03:40:39;;;;;;;20.05;11.68;;;6.20;99.90;;;;;;5020720;28;20121;-70
2022/01/01 03:43:05;;;;;;;36.88;21.05;;;6.20;99.90;;;;;;5013815;28;20080;-70
2022/01/01 03:45:30;;;;;;;23.42;12.02;;;6.10;99.90;;;;;;5010309;28;20069;-71
2022/01/01 03:47:56;;;;;;;19.35;10.32;;;6.10;99.90;;;;;;5014588;28;20080;-71
2022/01/01 03:50:22;;;;;;;35.85;19.25;;;6.00;99.90;;;;;;5013732;28;20088;-71
2022/01/01 03:52:48;;;;;;;43.97;25.95;;;6.00;99.90;;;;;;5013033;28;20060;-70
2022/01/01 03:55:14;;;;;;;56.10;30.52;;;5.90;99.90;;;;;;5013671;28;20034;-70
2022/01/01 03:57:40;;;;;;;55.28;30.38;;;5.80;99.90;;;;;;5013886;28;20030;-70
2022/01/01 04:00:11;;;;;;;55.10;29.85;;;5.80;99.90;;;;;;5008711;28;20038;-70
2022/01/01 04:02:36;;;;;;;53.15;30.98;;;5.70;99.90;;;;;;5001654;28;20036;-70
2022/01/01 04:05:03;;;;;;;51.03;28.05;;;5.60;99.90;;;;;;5012853;28;20030;-70
2022/01/01 04:07:32;;;;;;;66.22;32.67;;;5.60;99.90;;;;;;4995447;28;20030;-70
2022/01/01 04:09:58;;;;;;;77.22;37.63;;;5.50;99.90;;;;;;5016335;28;20069;-71
2022/01/01 04:12:24;;;;;;;68.90;32.35;;;5.50;99.90;;;;;;5010009;28;20433;-70
2022/01/01 04:14:50;;;;;;;55.03;30.70;;;5.50;99.90;;;;;;5013377;28;20546;-70
2022/01/01 04:17:16;;;;;;;44.92;25.67;;;5.40;99.90;;;;;;5012745;28;20061;-71
2022/01/01 04:19:42;;;;;;;45.00;24.73;;;5.40;99.90;;;;;;5012897;28;20383;-70
2022/01/01 04:22:12;;;;;;;42.72;23.33;;;5.40;99.90;;;;;;5000503;28;20037;-70
2022/01/01 04:24:39;;;;;;;43.22;23.70;;;5.30;99.90;;;;;;5009043;28;20113;-70
2022/01/01 04:27:05;;;;;;;43.78;23.17;;;5.20;99.90;;;;;;5013716;28;20057;-70
2022/01/01 04:29:31;;;;;;;43.72;24.05;;;5.10;99.90;;;;;;5012451;28;20387;-70
2022/01/01 04:31:57;;;;;;;43.03;23.95;;;5.10;99.90;;;;;;5014488;28;20127;-70
2022/01/01 04:34:24;;;;;;;40.55;22.38;;;5.10;99.90;;;;;;4992794;28;20499;-71
2022/01/01 04:37:01;;;;;;;43.35;23.63;;;5.10;99.90;;;;;;5016184;28;20095;-70
2022/01/01 04:39:27;;;;;;;45.67;23.58;;;5.00;99.90;;;;;;5011408;28;20394;-70
2022/01/01 04:41:53;;;;;;;45.60;24.23;;;5.00;99.90;;;;;;5009854;28;20108;-71
2022/01/01 04:44:19;;;;;;;46.28;23.30;;;5.00;99.90;;;;;;5011907;28;20113;-70
2022/01/01 04:46:45;;;;;;;43.42;24.33;;;5.00;99.90;;;;;;4997261;28;20080;-70
2022/01/01 04:49:10;;;;;;;42.33;22.15;;;4.90;99.90;;;;;;5015676;28;20036;-70
2022/01/01 04:51:37;;;;;;;41.35;21.42;;;4.90;99.90;;;;;;5010472;28;20033;-71
2022/01/01 04:54:06;;;;;;;40.85;22.45;;;4.90;99.90;;;;;;5008580;28;20022;-70
2022/01/01 04:56:33;;;;;;;40.53;21.08;;;4.90;99.90;;;;;;5012756;28;20030;-71
2022/01/01 04:59:02;;;;;;;37.15;19.50;;;4.90;99.90;;;;;;4996771;28;20026;-70
2022/01/01 05:01:27;;;;;;;35.17;18.13;;;4.90;99.90;;;;;;5000234;28;20057;-70
2022/01/01 05:03:55;;;;;;;32.42;17.90;;;4.90;99.90;;;;;;5014845;28;20057;-70
2022/01/01 05:06:20;;;;;;;32.58;17.63;;;4.80;99.90;;;;;;5009600;28;20034;-70
2022/01/01 05:08:46;;;;;;;32.28;15.50;;;4.80;99.90;;;;;;5011153;28;20097;-70
2022/01/01 05:11:12;;;;;;;26.88;15.45;;;4.80;99.90;;;;;;4998973;28;20029;-70
2022/01/01 05:13:38;;;;;;;28.30;15.20;;;4.80;99.90;;;;;;5008915;28;20117;-70
2022/01/01 05:16:04;;;;;;;26.67;15.77;;;4.80;99.90;;;;;;5015214;28;20159;-70
2022/01/01 05:18:29;;;;;;;28.85;13.93;;;4.80;99.90;;;;;;4999580;28;20121;-70
2022/01/01 05:20:55;;;;;;;30.67;15.15;;;4.80;99.90;;;;;;4999928;28;20518;-70
2022/01/01 05:23:21;;;;;;;22.77;12.48;;;4.70;99.90;;;;;;4996528;28;20414;-70
2022/01/01 05:25:46;;;;;;;21.25;11.02;;;4.70;99.90;;;;;;5013881;28;20033;-69
2022/01/01 05:28:12;;;;;;;18.65;9.80;;;4.70;99.90;;;;;;5015816;28;20381;-70
2022/01/01 05:30:38;;;;;;;18.33;9.45;;;4.70;99.90;;;;;;5018910;28;20040;-70
2022/01/01 05:33:03;;;;;;;17.25;8.57;;;4.70;99.90;;;;;;4995209;28;20038;-70
2022/01/01 05:35:29;;;;;;;18.80;8.32;;;4.70;99.90;;;;;;5009001;28;20534;-69
2022/01/01 05:37:55;;;;;;;18.83;9.38;;;4.70;99.90;;;;;;5012507;28;20116;-69
2022/01/01 05:40:20;;;;;;;15.27;7.55;;;4.70;99.90;;;;;;4993963;28;20034;-69
2022/01/01 05:42:46;;;;;;;14.57;7.43;;;4.80;99.90;;;;;;5011508;28;20053;-69
2022/01/01 05:45:12;;;;;;;13.18;7.03;;;4.80;99.90;;;;;;5021873;28;20061;-72
2022/01/01 05:47:38;;;;;;;13.18;7.18;;;4.80;99.90;;;;;;5016171;28;20487;-69
2022/01/01 05:50:05;;;;;;;12.65;6.38;;;4.80;99.90;;;;;;5006409;28;20029;-69
2022/01/01 05:52:30;;;;;;;9.60;4.63;;;4.80;99.90;;;;;;4997056;28;20037;-70
2022/01/01 05:54:56;;;;;;;9.57;5.13;;;4.80;99.90;;;;;;5009905;28;20032;-70
2022/01/01 05:57:22;;;;;;;12.85;5.97;;;4.80;99.90;;;;;;5014501;28;20129;-70
2022/01/01 05:59:47;;;;;;;9.60;4.85;;;4.80;99.90;;;;;;5017823;28;20145;-70
2022/01/01 06:02:13;;;;;;;11.52;6.47;;;4.90;99.90;;;;;;5010922;28;20030;-69
2022/01/01 06:04:39;;;;;;;17.23;9.45;;;4.90;99.90;;;;;;5014159;28;20042;-70
2022/01/01 06:07:05;;;;;;;27.70;14.52;;;4.80;99.90;;;;;;5015814;28;20104;-70
2022/01/01 06:09:30;;;;;;;36.22;17.60;;;4.90;99.90;;;;;;5006240;28;20026;-69
2022/01/01 06:11:56;;;;;;;36.33;20.23;;;4.80;99.90;;;;;;5015706;28;20068;-70
2022/01/01 06:14:22;;;;;;;37.00;19.17;;;4.80;99.90;;;;;;5015513;28;20454;-70
2022/01/01 06:16:48;;;;;;;32.83;17.10;;;4.70;99.90;;;;;;5003894;28;20633;-69
2022/01/01 06:19:14;;;;;;;33.85;19.00;;;4.70;99.90;;;;;;4997712;28;20530;-70
2022/01/01 06:21:40;;;;;;;42.58;21.27;;;4.70;99.90;;;;;;5019058;28;20121;-70
2022/01/01 06:24:06;;;;;;;34.65;18.73;;;4.70;99.90;;;;;;4998059;28;20486;-70
2022/01/01 06:26:32;;;;;;;36.88;19.02;;;4.60;99.90;;;;;;4999066;28;20034;-70
2022/01/01 06:28:58;;;;;;;32.95;18.85;;;4.60;99.90;;;;;;5012874;28;20410;-70
2022/01/01 06:31:23;;;;;;;38.63;18.95;;;4.50;99.90;;;;;;5005411;28;20522;-70
2022/01/01 06:33:49;;;;;;;31.77;17.80;;;4.40;99.90;;;;;;5004821;28;20022;-70
2022/01/01 06:36:17;;;;;;;31.20;17.05;;;4.40;99.90;;;;;;5014862;28;20037;-70
2022/01/01 06:38:44;;;;;;;32.45;17.30;;;4.40;99.90;;;;;;5014588;28;20026;-69
2022/01/01 06:41:11;;;;;;;33.10;18.05;;;4.40;99.90;;;;;;5012409;28;20161;-70
2022/01/01 06:43:38;;;;;;;29.73;17.58;;;4.30;99.90;;;;;;5024736;28;20494;-70
2022/01/01 06:46:04;;;;;;;36.35;19.00;;;4.40;99.90;;;;;;5018143;28;20030;-70
2022/01/01 06:48:30;;;;;;;30.05;16.17;;;4.30;99.90;;;;;;5011485;28;20022;-70
2022/01/01 06:50:56;;;;;;;29.58;16.90;;;4.30;99.90;;;;;;5013062;28;20022;-70
2022/01/01 06:53:21;;;;;;;33.50;16.83;;;4.30;99.90;;;;;;5013603;28;20041;-70
2022/01/01 06:55:47;;;;;;;27.48;16.38;;;4.30;99.90;;;;;;5013948;28;20026;-70
2022/01/01 06:58:13;;;;;;;28.52;15.88;;;4.30;99.90;;;;;;4997789;28;20462;-69
2022/01/01 07:00:39;;;;;;;28.30;15.65;;;4.30;99.90;;;;;;4995186;28;20032;-69
2022/01/01 07:03:06;;;;;;;29.67;15.80;;;4.40;99.90;;;;;;4999141;28;20135;-69
2022/01/01 07:05:31;;;;;;;30.17;16.10;;;4.40;99.90;;;;;;5011195;28;20040;-69
2022/01/01 07:07:57;;;;;;;28.98;16.02;;;4.50;99.90;;;;;;4996575;28;20026;-70
2022/01/01 07:10:23;;;;;;;31.08;15.93;;;4.50;99.90;;;;;;5014592;28;20508;-70
2022/01/01 07:12:49;;;;;;;27.50;14.68;;;4.60;99.90;;;;;;5018710;28;20065;-70
2022/01/01 07:15:17;;;;;;;25.98;14.32;;;4.70;99.90;;;;;;5009011;28;20036;-70
2022/01/01 07:17:43;;;;;;;27.88;15.13;;;4.70;99.90;;;;;;5013267;28;20033;-70
2022/01/01 07:20:10;;;;;;;26.67;13.35;;;4.80;99.90;;;;;;5015262;28;20053;-70
2022/01/01 07:22:44;;;;;;;22.75;12.70;;;4.80;99.90;;;;;;4998499;28;20029;-70
2022/01/01 07:25:11;;;;;;;24.33;13.68;;;4.90;99.90;;;;;;5006938;28;20087;-70
2022/01/01 07:27:37;;;;;;;29.48;14.25;;;4.90;99.90;;;;;;5011463;28;20026;-70
2022/01/01 07:30:05;;;;;;;23.77;13.73;;;4.90;99.90;;;;;;5000719;28;20028;-70
2022/01/01 07:32:31;;;;;;;30.48;13.77;;;4.90;99.90;;;;;;5014386;28;20026;-70
2022/01/01 07:34:56;;;;;;;27.65;13.10;;;4.90;99.90;;;;;;5012942;28;20441;-69
2022/01/01 07:37:22;;;;;;;25.30;13.48;;;4.90;99.90;;;;;;5018307;28;20033;-70
2022/01/01 07:39:48;;;;;;;24.55;11.98;;;4.90;99.90;;;;;;4996174;28;20403;-70
2022/01/01 07:42:14;;;;;;;23.17;12.80;;;4.90;99.90;;;;;;5004552;28;20064;-69
2022/01/01 07:44:43;;;;;;;21.23;12.15;;;4.90;99.90;;;;;;5014634;28;20029;-69
2022/01/01 07:47:09;;;;;;;21.83;11.73;;;4.90;99.90;;;;;;5015178;28;20434;-69
2022/01/01 07:49:35;;;;;;;20.85;11.25;;;4.90;99.90;;;;;;5014242;28;20176;-70
2022/01/01 07:52:00;;;;;;;21.05;11.02;;;4.90;99.90;;;;;;5008417;28;20386;-70
2022/01/01 07:54:26;;;;;;;21.25;11.20;;;4.80;99.90;;;;;;5013040;28;20398;-70
2022/01/01 07:56:52;;;;;;;14.88;9.13;;;4.80;99.90;;;;;;5014004;28;20030;-70
2022/01/01 07:59:17;;;;;;;18.90;9.05;;;4.80;99.90;;;;;;5013802;28;20474;-70
2022/01/01 08:01:43;;;;;;;13.85;7.43;;;4.90;99.90;;;;;;5017165;28;20025;-70
2022/01/01 08:04:10;;;;;;;9.40;5.43;;;4.90;99.90;;;;;;5019093;28;20029;-70
2022/01/01 08:06:35;;;;;;;11.05;5.45;;;5.00;99.90;;;;;;5019379;28;20026;-70
2022/01/01 08:09:03;;;;;;;10.85;5.10;;;5.10;99.90;;;;;;5013573;28;20112;-69
2022/01/01 08:11:28;;;;;;;11.80;5.78;;;5.10;99.90;;;;;;5007194;28;20026;-69
2022/01/01 08:13:54;;;;;;;10.10;5.32;;;5.20;99.90;;;;;;5010240;28;20044;-69
2022/01/01 08:16:21;;;;;;;9.93;5.32;;;5.20;99.90;;;;;;5008906;28;20133;-70
2022/01/01 08:18:47;;;;;;;11.60;6.22;;;5.20;99.90;;;;;;5010353;28;20088;-70
2022/01/01 08:21:12;;;;;;;10.93;6.50;;;5.30;99.90;;;;;;4999878;28;20391;-70
2022/01/01 08:23:38;;;;;;;19.35;10.68;;;5.40;99.90;;;;;;5000549;28;20106;-70
2022/01/01 08:26:04;;;;;;;17.45;10.18;;;5.40;99.90;;;;;;5011023;28;20079;-70
2022/01/01 08:28:30;;;;;;;21.90;11.43;;;5.30;99.90;;;;;;5009124;28;20058;-70
2022/01/01 08:30:55;;;;;;;17.33;10.55;;;5.40;99.90;;;;;;5016292;28;20089;-70
2022/01/01 08:33:22;;;;;;;19.52;11.25;;;5.30;99.90;;;;;;5011395;28;20029;-70
2022/01/01 08:35:47;;;;;;;19.75;11.43;;;5.30;99.90;;;;;;4999328;28;20045;-69
2022/01/01 08:38:16;;;;;;;19.40;11.23;;;5.30;99.90;;;;;;5010873;28;20025;-69
2022/01/01 08:40:42;;;;;;;20.85;11.70;;;5.30;99.90;;;;;;4993440;28;20026;-70
2022/01/01 08:43:08;;;;;;;19.15;10.82;;;5.40;99.90;;;;;;5010697;28;20465;-70
2022/01/01 08:45:37;;;;;;;18.08;10.38;;;5.40;99.90;;;;;;5012042;28;20045;-69
2022/01/01 08:48:05;;;;;;;16.17;8.73;;;5.40;99.90;;;;;;5007729;28;20576;-69
2022/01/01 08:50:30;;;;;;;13.15;8.13;;;5.50;99.90;;;;;;5003075;28;20044;-70
2022/01/01 08:52:57;;;;;;;14.05;8.25;;;5.50;99.90;;;;;;5009381;28;20538;-69
2022/01/01 08:55:24;;;;;;;13.65;8.13;;;5.50;99.90;;;;;;5016038;28;20026;-69
2022/01/01 08:57:50;;;;;;;19.85;10.60;;;5.60;99.90;;;;;;5007839;28;20053;-69
2022/01/01 09:00:16;;;;;;;19.02;10.40;;;5.60;99.90;;;;;;5012125;28;20134;-70
2022/01/01 09:02:42;;;;;;;18.90;10.23;;;5.60;99.90;;;;;;5003322;28;20030;-70
2022/01/01 09:05:10;;;;;;;19.73;11.98;;;5.60;99.90;;;;;;5008780;28;20141;-70
2022/01/01 09:07:36;;;;;;;20.52;10.50;;;5.70;99.90;;;;;;5006554;28;20117;-70
2022/01/01 09:10:04;;;;;;;21.33;11.35;;;5.70;99.90;;;;;;5007841;28;20100;-70
2022/01/01 09:12:30;;;;;;;19.65;11.23;;;5.70;99.90;;;;;;5012848;28;20029;-70
2022/01/01 09:14:56;;;;;;;18.80;11.13;;;5.70;99.90;;;;;;5017528;28;20056;-69
2022/01/01 09:17:23;;;;;;;23.25;11.88;;;5.70;99.90;;;;;;5009506;28;20391;-69
2022/01/01 09:19:49;;;;;;;20.13;11.80;;;5.80;99.90;;;;;;5010677;28;20034;-69
2022/01/01 09:22:15;;;;;;;21.55;12.23;;;5.80;99.90;;;;;;5009326;28;20029;-68
2022/01/01 09:24:40;;;;;;;22.58;11.55;;;5.80;99.90;;;;;;5004811;28;20095;-69
2022/01/01 09:27:06;;;;;;;18.45;10.48;;;5.90;99.90;;;;;;5014703;28;20097;-69
2022/01/01 09:29:32;;;;;;;15.60;9.30;;;5.90;99.90;;;;;;5008183;28;20080;-69
2022/01/01 09:31:58;;;;;;;16.63;9.90;;;5.90;99.90;;;;;;5012141;28;20032;-68
2022/01/01 09:34:23;;;;;;;17.50;9.60;;;5.90;99.90;;;;;;4995807;28;20092;-69
2022/01/01 09:36:50;;;;;;;20.02;10.77;;;6.00;99.90;;;;;;5012947;28;20026;-70
2022/01/01 09:39:17;;;;;;;19.25;10.65;;;6.00;99.90;;;;;;5009549;28;20033;-69
2022/01/01 09:41:43;;;;;;;17.67;9.55;;;6.10;99.90;;;;;;5007446;28;20575;-69
2022/01/01 09:44:15;;;;;;;19.65;10.27;;;6.10;99.90;;;;;;5009730;28;20022;-70
2022/01/01 09:46:44;;;;;;;19.27;9.90;;;6.20;99.90;;;;;;4990904;28;20475;-69
2022/01/01 09:49:12;;;;;;;14.80;8.80;;;6.20;99.90;;;;;;5006558;28;20033;-68
2022/01/01 09:51:38;;;;;;;16.67;8.60;;;6.30;99.90;;;;;;5006715;28;20101;-69
2022/01/01 09:54:03;;;;;;;16.75;8.63;;;6.30;99.90;;;;;;5011956;28;20093;-70
2022/01/01 09:56:29;;;;;;;21.75;11.82;;;6.40;99.90;;;;;;5011810;28;20508;-69
2022/01/01 09:58:55;;;;;;;21.67;11.95;;;6.40;99.90;;;;;;4992815;28;20026;-70
2022/01/01 10:01:20;;;;;;;16.05;9.07;;;6.50;99.90;;;;;;5009572;28;20030;-70
2022/01/01 10:03:50;;;;;;;14.82;8.52;;;6.50;99.90;;;;;;5010968;28;20026;-70
2022/01/01 10:06:18;;;;;;;15.00;8.05;;;6.60;99.90;;;;;;5008738;28;20390;-70
2022/01/01 10:08:47;;;;;;;15.68;8.00;;;6.60;99.90;;;;;;5012949;28;20079;-70
2022/01/01 10:11:18;;;;;;;12.85;7.05;;;6.70;99.90;;;;;;5002672;28;20029;-69
2022/01/01 10:13:45;;;;;;;14.05;6.90;;;6.80;99.90;;;;;;5010782;28;20018;-69
2022/01/01 10:16:14;;;;;;;14.38;7.20;;;6.80;99.90;;;;;;5007515;28;20022;-69
2022/01/01 10:18:42;;;;;;;16.20;7.82;;;6.80;99.90;;;;;;5007620;28;20022;-68
2022/01/01 10:21:12;;;;;;;13.90;7.72;;;6.90;99.90;;;;;;5002894;28;20025;-70
2022/01/01 10:23:41;;;;;;;13.98;7.32;;;7.00;99.90;;;;;;4998089;28;20037;-69
2022/01/01 10:29:26;;;;;;;13.63;7.30;;;7.10;99.90;;;;;;5010582;28;20092;-71
2022/01/01 10:32:11;;;;;;;13.30;7.28;;;7.10;99.90;;;;;;5007867;28;20513;-70
2022/01/01 10:34:45;;;;;;;12.77;6.78;;;7.30;99.90;;;;;;5007508;28;20034;-69
2022/01/01 10:37:14;;;;;;;12.60;6.15;;;7.30;99.90;;;;;;5011581;28;20033;-70
2022/01/01 10:39:54;;;;;;;12.07;6.20;;;7.40;99.90;;;;;;5015324;28;20034;-69
2022/01/01 10:42:20;;;;;;;9.85;5.20;;;7.40;99.90;;;;;;4996763;28;20030;-69
2022/01/01 10:44:48;;;;;;;10.18;5.65;;;7.50;99.90;;;;;;5014821;28;20045;-69
2022/01/01 10:47:16;;;;;;;9.93;5.90;;;7.50;99.90;;;;;;5007262;28;20037;-70
2022/01/01 10:52:23;;;;;;;8.68;5.82;;;7.70;99.90;;;;;;5010999;28;20032;-70
2022/01/01 10:55:07;;;;;;;11.85;6.38;;;7.80;99.90;;;;;;5012608;28;20387;-70
2022/01/01 10:57:38;;;;;;;11.02;6.00;;;7.80;99.90;;;;;;5014935;28;20032;-69
2022/01/01 11:00:09;;;;;;;9.98;5.65;;;7.90;99.90;;;;;;5009571;28;20041;-69
2022/01/01 11:02:36;;;;;;;11.02;6.15;;;7.90;99.90;;;;;;4994922;28;20037;-69
2022/01/01 11:05:03;;;;;;;11.18;6.38;;;8.00;99.90;;;;;;5012017;28;20088;-70
2022/01/01 11:07:30;;;;;;;14.13;7.20;;;8.00;99.90;;;;;;4995226;28;20506;-70
2022/01/01 11:09:57;;;;;;;11.80;6.80;;;8.10;99.90;;;;;;5013317;28;20045;-69
2022/01/01 11:12:24;;;;;;;10.00;5.55;;;8.10;99.90;;;;;;5011327;28;20479;-69
2022/01/01 11:14:53;;;;;;;8.70;4.75;;;8.20;99.90;;;;;;5009533;28;20026;-70
2022/01/01 11:17:20;;;;;;;10.02;4.40;;;8.20;99.90;;;;;;5012209;28;20038;-70
2022/01/01 11:19:46;;;;;;;7.75;4.40;;;8.40;99.90;;;;;;4999287;28;20032;-70
2022/01/01 11:22:12;;;;;;;9.70;4.95;;;8.40;99.90;;;;;;5013593;28;20034;-70
2022/01/01 11:24:41;;;;;;;10.32;5.38;;;8.50;99.90;;;;;;5007681;28;20033;-70
2022/01/01 11:27:07;;;;;;;9.73;4.93;;;8.50;99.90;;;;;;5006669;28;20496;-70
2022/01/01 11:29:34;;;;;;;10.38;5.40;;;8.70;99.90;;;;;;5010170;28;20026;-69
2022/01/01 11:32:02;;;;;;;8.75;4.72;;;8.70;99.90;;;;;;4994090;28;20101;-70
2022/01/01 11:34:31;;;;;;;9.40;4.82;;;8.80;99.90;;;;;;5004733;28;20068;-70
2022/01/01 11:36:57;;;;;;;11.07;5.22;;;8.80;99.90;;;;;;5002318;28;20443;-73
2022/01/01 11:39:25;;;;;;;7.72;4.85;;;8.80;99.90;;;;;;5011587;28;20044;-70
2022/01/01 11:41:51;;;;;;;9.48;5.13;;;8.80;99.90;;;;;;5011204;28;20030;-72
2022/01/01 11:44:32;;;;;;;7.80;4.78;;;8.90;99.90;;;;;;5008448;28;20513;-71
2022/01/01 11:47:00;;;;;;;8.82;4.97;;;9.00;99.90;;;;;;4995119;28;20507;-71
2022/01/01 11:49:28;;;;;;;8.68;5.03;;;9.00;99.90;;;;;;4972628;28;20530;-71
2022/01/01 11:51:58;;;;;;;11.18;5.40;;;9.10;99.90;;;;;;4968384;28;20118;-70
2022/01/01 11:54:35;;;;;;;9.15;4.97;;;9.10;99.90;;;;;;4971271;28;20061;-72
2022/01/01 11:57:05;;;;;;;7.15;4.47;;;9.10;99.90;;;;;;4972703;28;20042;-71
2022/01/01 11:59:36;;;;;;;7.45;4.47;;;9.20;99.90;;;;;;4972809;28;20101;-71
2022/01/01 12:02:20;;;;;;;11.20;5.18;;;9.20;99.90;;;;;;4985223;28;20500;-71
2022/01/01 12:04:55;;;;;;;9.00;4.63;;;9.20;99.90;;;;;;4990156;28;20393;-71
2022/01/01 12:07:21;;;;;;;8.65;4.88;;;9.20;99.90;;;;;;4974077;28;20031;-71
2022/01/01 12:10:02;;;;;;;10.48;5.03;;;9.30;99.90;;;;;;4972081;28;20549;-71
2022/01/01 12:12:50;;;;;;;9.85;4.63;;;9.30;99.90;;;;;;4975297;28;20030;-71
2022/01/01 12:15:27;;;;;;;10.13;5.00;;;9.40;99.90;;;;;;4970169;28;20029;-71
2022/01/01 12:17:57;;;;;;;7.03;4.25;;;9.50;99.90;;;;;;4968985;28;20030;-71
2022/01/01 12:20:40;;;;;;;7.13;4.20;;;9.60;99.90;;;;;;4969974;28;20485;-71
2022/01/01 12:23:15;;;;;;;10.05;4.40;;;9.70;99.90;;;;;;4974350;28;20045;-71
2022/01/01 12:25:43;;;;;;;11.52;4.20;;;9.80;99.90;;;;;;4996437;28;20025;-71
2022/01/01 12:28:13;;;;;;;7.43;4.72;;;9.90;99.90;;;;;;5004396;28;20026;-70
2022/01/01 12:30:51;;;;;;;8.48;5.00;;;10.00;99.90;;;;;;5012542;28;20113;-70
2022/01/01 12:33:51;;;;;;;9.85;4.60;;;10.00;99.90;;;;;;5008563;28;20033;-70
2022/01/01 12:36:25;;;;;;;13.50;4.40;;;10.00;99.90;;;;;;5007477;28;20041;-70
2022/01/01 12:38:59;;;;;;;8.27;4.80;;;10.00;99.90;;;;;;5008844;28;20117;-71
2022/01/01 12:41:32;;;;;;;10.00;4.88;;;10.10;99.90;;;;;;5010198;28;20049;-70
2022/01/01 12:44:00;;;;;;;7.80;5.17;;;10.10;99.90;;;;;;5010143;28;20068;-70
2022/01/01 12:46:32;;;;;;;8.10;4.88;;;10.20;99.90;;;;;;5004750;28;20279;-73
2022/01/01 12:49:00;;;;;;;8.60;5.18;;;10.30;99.90;;;;;;5007507;28;20120;-71
2022/01/01 12:51:28;;;;;;;8.63;4.90;;;10.30;99.90;;;;;;5004349;28;20029;-71
2022/01/01 12:54:13;;;;;;;12.63;5.60;;;10.30;99.90;;;;;;5008800;28;20179;-70